Haid, Texas
Current Conditions -  °F | °C
As of 4:15 AM on Thursday 23 Oct 2014 (Local Time) from KARM Reporting Station
Clear Clear  
Wind Chill: 58°   Ceiling: Unl
Heat Index: 58°   Visibility: 10mi
Dew Point: 57°   Wind: 3mph
Humidity: 94%   Direction: 50°NE
Pressure: 30.07"   Gusts: NA
Location:  29.2155°N, 96.0266°W
Report Text: KARM 230915Z AUTO 05003KT 10SM CLR 15/14 A3007 RMK AO2 T01460137
Loading
Personal Weather Stations






























Interactive Weather Map
Tropical Storm Tracking
New forecast layout! Learn more

10-Day Weather Forecast

Advertisements
Track Severe Weather on mobile